Time;durP1;ratioP1;P1;durP2;ratioP2;P2;SDS_P1;SDS_P2;PMS_P1;PMS_P2;Temp;Humidity;BMP_temperature;BMP_pressure;BME280_temperature;BME280_humidity;BME280_pressure;Samples;Min_cycle;Max_cycle;Signal;HPM_P1;HPM_P2
2022/03/17 00:01:51;;;;;;;24.08;16.65;;;10.20;99.90;;;;;;5104676;28;20044;-65
2022/03/17 00:04:20;;;;;;;29.73;19.25;;;10.20;99.90;;;;;;5104966;28;20122;-66
2022/03/17 00:06:46;;;;;;;27.42;19.35;;;10.20;99.90;;;;;;5104223;28;20474;-65
2022/03/17 00:09:12;;;;;;;28.42;17.90;;;10.10;99.90;;;;;;5104511;28;20047;-65
2022/03/17 00:11:37;;;;;;;30.20;18.20;;;10.10;99.90;;;;;;5104993;28;20036;-66
2022/03/17 00:14:03;;;;;;;28.73;19.00;;;10.10;99.90;;;;;;5104527;28;20044;-66
2022/03/17 00:16:30;;;;;;;30.45;18.90;;;10.10;99.90;;;;;;5104150;28;20049;-66
2022/03/17 00:18:56;;;;;;;28.83;19.50;;;10.10;99.90;;;;;;5103401;28;20056;-65
2022/03/17 00:21:22;;;;;;;30.48;19.83;;;10.00;99.90;;;;;;5103999;28;20055;-65
2022/03/17 00:23:49;;;;;;;27.15;18.33;;;10.20;99.90;;;;;;5104572;28;20115;-65
2022/03/17 00:26:15;;;;;;;28.88;19.15;;;10.10;99.90;;;;;;5104643;28;20044;-65
2022/03/17 00:28:40;;;;;;;33.00;19.05;;;10.10;99.90;;;;;;5104431;28;20059;-65
2022/03/17 00:31:06;;;;;;;30.90;19.67;;;10.10;99.90;;;;;;5104157;28;20048;-65
2022/03/17 00:33:32;;;;;;;28.33;19.10;;;10.00;99.90;;;;;;5104567;28;20050;-65
2022/03/17 00:35:57;;;;;;;29.75;18.40;;;10.00;99.90;;;;;;5103695;28;20039;-65
2022/03/17 00:38:23;;;;;;;30.60;20.20;;;10.10;99.90;;;;;;5104509;28;20048;-64
2022/03/17 00:40:49;;;;;;;31.30;19.85;;;10.10;99.90;;;;;;5104105;28;20048;-65
2022/03/17 00:43:15;;;;;;;32.10;19.35;;;10.00;99.90;;;;;;5104416;28;20122;-65
2022/03/17 00:45:43;;;;;;;30.07;18.87;;;10.00;99.90;;;;;;5104196;28;20078;-65
2022/03/17 00:48:10;;;;;;;28.92;19.48;;;10.10;99.90;;;;;;5104335;28;20040;-64
2022/03/17 00:50:36;;;;;;;31.13;20.20;;;10.00;99.90;;;;;;5104214;28;20052;-65
2022/03/17 00:53:03;;;;;;;30.05;19.67;;;9.90;99.90;;;;;;5103548;28;20059;-65
2022/03/17 00:55:28;;;;;;;30.45;19.17;;;10.00;99.90;;;;;;5102780;28;20055;-65
2022/03/17 00:57:54;;;;;;;26.63;18.60;;;10.00;99.90;;;;;;5104134;28;20044;-65
2022/03/17 01:00:21;;;;;;;28.48;19.23;;;10.00;99.90;;;;;;5104057;28;20353;-65
2022/03/17 01:02:53;;;;;;;33.28;19.08;;;10.00;99.90;;;;;;5104319;28;20508;-64
2022/03/17 01:05:19;;;;;;;29.98;20.42;;;10.00;99.90;;;;;;5103802;28;20040;-65
2022/03/17 01:07:45;;;;;;;30.38;20.40;;;10.00;99.90;;;;;;5103375;28;20059;-65
2022/03/17 01:10:18;;;;;;;29.70;19.90;;;9.90;99.90;;;;;;5104248;28;20035;-65
2022/03/17 01:12:46;;;;;;;33.45;20.92;;;9.90;99.90;;;;;;5103995;28;20044;-65
2022/03/17 01:15:12;;;;;;;;;;;10.00;99.90;;;;;;5103180;28;20048;-66
2022/03/17 01:17:38;;;;;;;33.05;20.63;;;9.90;99.90;;;;;;5104191;28;19920;-65
2022/03/17 01:20:05;;;;;;;30.42;20.77;;;9.90;99.90;;;;;;5103866;28;20065;-65
2022/03/17 01:22:31;;;;;;;29.05;18.83;;;9.90;99.90;;;;;;5103166;28;20067;-65
2022/03/17 01:24:57;;;;;;;30.92;20.25;;;9.90;99.90;;;;;;5103956;28;20082;-65
2022/03/17 01:27:23;;;;;;;30.02;19.77;;;9.90;99.90;;;;;;5103629;28;20054;-64
2022/03/17 01:29:52;;;;;;;30.42;19.80;;;9.90;99.90;;;;;;5103840;28;20039;-64
2022/03/17 01:32:19;;;;;;;31.17;20.70;;;9.80;99.90;;;;;;5103626;28;20056;-64
2022/03/17 01:34:45;;;;;;;30.08;20.45;;;9.90;99.90;;;;;;5103947;28;20044;-65
2022/03/17 01:37:11;;;;;;;31.95;20.17;;;9.90;99.90;;;;;;5103345;28;20032;-65
2022/03/17 01:39:37;;;;;;;28.52;20.20;;;9.90;99.90;;;;;;5102442;28;20055;-65
2022/03/17 01:42:05;;;;;;;30.75;20.63;;;9.80;99.90;;;;;;5103888;28;20454;-65
2022/03/17 01:44:30;;;;;;;30.63;19.95;;;9.80;99.90;;;;;;5103696;28;20074;-65
2022/03/17 01:49:42;;;;;;;33.45;20.75;;;9.80;99.90;;;;;;5107286;28;20077;-65
2022/03/17 01:52:08;;;;;;;30.75;19.65;;;9.80;99.90;;;;;;5106367;28;20036;-65
2022/03/17 01:54:36;;;;;;;32.67;20.20;;;9.70;99.90;;;;;;5107032;28;20044;-65
2022/03/17 01:57:03;;;;;;;32.28;20.85;;;9.70;99.90;;;;;;5107561;28;20093;-65
2022/03/17 01:59:31;;;;;;;40.25;20.83;;;9.70;99.90;;;;;;5107247;28;20052;-64
2022/03/17 02:01:57;;;;;;;30.58;20.30;;;9.70;99.90;;;;;;5106516;28;20040;-65
2022/03/17 02:04:24;;;;;;;31.35;19.50;;;9.70;99.90;;;;;;5107008;28;20070;-65
2022/03/17 02:06:50;;;;;;;37.95;21.38;;;9.70;99.90;;;;;;5106504;28;20093;-64
2022/03/17 02:09:18;;;;;;;32.15;21.40;;;9.80;99.90;;;;;;5107232;28;20051;-64
2022/03/17 02:14:34;;;;;;;33.60;21.63;;;9.80;99.90;;;;;;5106783;28;20051;-64
2022/03/17 02:17:00;;;;;;;35.42;21.45;;;9.80;99.90;;;;;;5106570;28;20048;-64
2022/03/17 02:19:26;;;;;;;31.83;20.88;;;9.80;99.90;;;;;;5106572;28;20061;-64
2022/03/17 02:21:52;;;;;;;30.70;19.77;;;9.80;99.90;;;;;;5106122;28;20093;-64
2022/03/17 02:27:03;;;;;;;35.22;20.80;;;9.90;99.90;;;;;;5106665;28;20077;-64
2022/03/17 02:29:31;;;;;;;31.17;20.60;;;9.80;99.90;;;;;;5088404;28;20115;-64
2022/03/17 02:31:58;;;;;;;35.13;20.88;;;9.90;99.90;;;;;;5106195;28;20048;-64
2022/03/17 02:34:24;;;;;;;33.38;21.23;;;9.90;99.90;;;;;;5106497;28;20059;-65
2022/03/17 02:36:51;;;;;;;32.03;21.65;;;9.90;99.90;;;;;;5105871;28;20036;-64
2022/03/17 02:39:18;;;;;;;32.42;21.08;;;9.90;99.90;;;;;;5106695;28;20040;-66
2022/03/17 02:41:44;;;;;;;30.27;20.90;;;9.80;99.90;;;;;;5106205;28;20051;-65
2022/03/17 02:44:11;;;;;;;37.35;22.75;;;9.90;99.90;;;;;;5106115;28;20420;-66
2022/03/17 02:46:37;;;;;;;35.50;22.10;;;9.80;99.90;;;;;;5105546;28;20112;-65
2022/03/17 02:49:03;;;;;;;33.33;21.90;;;9.80;99.90;;;;;;5088150;28;20036;-65
2022/03/17 02:51:30;;;;;;;;;;;9.80;99.90;;;;;;5085743;28;20067;-64
2022/03/17 02:53:56;;;;;;;30.13;21.23;;;9.80;99.90;;;;;;5085808;28;19920;-65
2022/03/17 02:56:22;;;;;;;29.02;20.30;;;9.80;99.90;;;;;;5088334;28;20040;-64
2022/03/17 02:58:48;;;;;;;33.50;23.20;;;9.80;99.90;;;;;;5105928;28;20058;-64
2022/03/17 03:01:14;;;;;;;31.58;21.23;;;9.80;99.90;;;;;;5105600;28;20048;-64
2022/03/17 03:03:39;;;;;;;30.05;21.63;;;9.80;99.90;;;;;;5106178;28;20044;-65
2022/03/17 03:06:06;;;;;;;34.80;22.75;;;9.80;99.90;;;;;;5105158;28;20067;-65
2022/03/17 03:08:33;;;;;;;32.65;21.15;;;9.70;99.90;;;;;;5105810;28;20055;-65
2022/03/17 03:10:59;;;;;;;32.67;21.17;;;9.80;99.90;;;;;;5105406;28;20040;-65
2022/03/17 03:13:25;;;;;;;33.88;22.10;;;9.70;99.90;;;;;;5105893;28;20043;-65
2022/03/17 03:15:51;;;;;;;32.35;22.08;;;9.70;99.90;;;;;;5105747;28;20087;-64
2022/03/17 03:18:18;;;;;;;31.13;19.02;;;9.70;99.90;;;;;;5105766;28;20040;-66
2022/03/17 03:20:44;;;;;;;32.95;22.08;;;9.80;99.90;;;;;;5105513;28;20078;-66
2022/03/17 03:23:10;;;;;;;33.45;20.15;;;9.80;99.90;;;;;;5103793;28;20483;-64
2022/03/17 03:25:36;;;;;;;31.67;22.17;;;9.90;99.90;;;;;;5105100;28;20051;-66
2022/03/17 03:28:09;;;;;;;30.02;21.63;;;9.90;99.90;;;;;;5104059;28;20055;-65
2022/03/17 03:30:36;;;;;;;31.83;21.58;;;10.00;99.90;;;;;;5105372;28;20083;-65
2022/03/17 03:33:03;;;;;;;30.63;21.90;;;10.00;99.90;;;;;;5105246;28;20091;-65
2022/03/17 03:38:14;;;;;;;32.90;22.27;;;10.20;99.90;;;;;;5104955;28;20090;-65
2022/03/17 03:40:40;;;;;;;33.13;21.02;;;10.30;99.90;;;;;;5103731;28;20051;-66
2022/03/17 03:43:05;;;;;;;33.97;22.38;;;10.40;99.90;;;;;;5105221;28;20075;-65
2022/03/17 03:45:31;;;;;;;32.38;22.05;;;10.40;99.90;;;;;;5105208;28;20043;-64
2022/03/17 03:47:57;;;;;;;35.60;21.45;;;10.40;99.90;;;;;;5104941;28;20051;-65
2022/03/17 03:50:23;;;;;;;30.20;21.85;;;10.40;99.90;;;;;;5105032;28;20142;-65
2022/03/17 03:52:49;;;;;;;31.48;21.77;;;10.50;99.90;;;;;;5104379;28;20063;-65
2022/03/17 03:55:14;;;;;;;29.88;21.77;;;10.50;99.90;;;;;;5104885;28;20492;-65
2022/03/17 03:57:40;;;;;;;31.38;22.38;;;10.50;99.90;;;;;;5104964;28;20047;-65
2022/03/17 04:00:52;;;;;;;34.20;22.35;;;10.50;99.90;;;;;;5103253;28;20048;-65
2022/03/17 04:02:53;;;;;;;30.13;21.33;;;10.50;99.90;;;;;;5097025;28;20051;-65
2022/03/17 04:05:26;;;;;;;32.33;21.60;;;10.40;99.90;;;;;;5104539;28;20063;-64
2022/03/17 04:07:55;;;;;;;32.33;22.48;;;10.50;99.90;;;;;;5104295;28;20036;-64
2022/03/17 04:10:21;;;;;;;32.22;22.95;;;10.50;99.90;;;;;;5104100;28;20081;-65
2022/03/17 04:12:46;;;;;;;32.72;24.25;;;10.50;99.90;;;;;;5104625;28;20040;-64
2022/03/17 04:15:12;;;;;;;37.55;25.55;;;10.40;99.90;;;;;;5104355;28;20082;-64
2022/03/17 04:17:38;;;;;;;35.20;24.15;;;10.40;99.90;;;;;;5104441;28;20442;-66
2022/03/17 04:20:05;;;;;;;37.83;25.05;;;10.30;99.90;;;;;;5103249;28;20048;-65
2022/03/17 04:22:31;;;;;;;42.83;27.83;;;10.10;99.90;;;;;;5103796;28;20040;-65
2022/03/17 04:24:57;;;;;;;37.95;28.35;;;10.00;99.90;;;;;;5104760;28;20063;-65
2022/03/17 04:27:23;;;;;;;47.47;29.80;;;9.90;99.90;;;;;;5104332;28;20050;-65
2022/03/17 04:29:48;;;;;;;37.40;26.35;;;9.80;99.90;;;;;;5104221;28;20055;-65
2022/03/17 04:32:14;;;;;;;42.20;28.38;;;9.80;99.90;;;;;;5104179;28;20043;-64
2022/03/17 04:34:40;;;;;;;43.92;30.27;;;9.70;99.90;;;;;;5104342;28;20090;-65
2022/03/17 04:37:06;;;;;;;44.53;30.10;;;9.70;99.90;;;;;;5104060;28;20090;-64
2022/03/17 04:39:32;;;;;;;51.03;32.40;;;9.50;99.90;;;;;;5104262;28;20150;-64
2022/03/17 04:41:57;;;;;;;42.85;30.50;;;9.50;99.90;;;;;;5104381;28;20044;-65
2022/03/17 04:44:23;;;;;;;49.63;33.17;;;9.40;99.90;;;;;;5104367;28;20048;-64
2022/03/17 04:46:49;;;;;;;46.83;31.27;;;9.40;99.90;;;;;;5103822;28;20047;-64
2022/03/17 04:49:14;;;;;;;54.15;34.67;;;9.40;99.90;;;;;;5104372;28;20126;-64
2022/03/17 04:51:40;;;;;;;57.15;34.45;;;9.30;99.90;;;;;;5103398;28;20064;-64
2022/03/17 04:54:06;;;;;;;50.83;35.72;;;9.40;99.90;;;;;;5104321;28;20044;-65
2022/03/17 04:56:32;;;;;;;54.75;35.97;;;9.40;99.90;;;;;;5104024;28;20044;-65
2022/03/17 04:58:58;;;;;;;60.40;37.75;;;9.30;99.90;;;;;;5104188;28;20048;-65
2022/03/17 05:01:23;;;;;;;64.03;39.88;;;9.20;99.90;;;;;;5104106;28;20051;-66
2022/03/17 05:03:50;;;;;;;57.58;37.03;;;9.10;99.90;;;;;;5104195;28;20095;-66
2022/03/17 05:06:16;;;;;;;63.40;39.15;;;9.10;99.90;;;;;;5103406;28;20044;-65
2022/03/17 05:08:42;;;;;;;66.20;39.92;;;9.10;99.90;;;;;;5104124;28;20127;-65
2022/03/17 05:11:09;;;;;;;66.45;41.42;;;9.10;99.90;;;;;;5103875;28;20048;-66
2022/03/17 05:13:36;;;;;;;66.72;41.50;;;9.10;99.90;;;;;;5104244;28;20052;-66
2022/03/17 05:16:04;;;;;;;66.70;40.08;;;9.20;99.90;;;;;;5103742;28;20040;-65
2022/03/17 05:18:30;;;;;;;68.97;41.88;;;9.10;99.90;;;;;;5103849;28;20051;-64
2022/03/17 05:20:56;;;;;;;57.15;35.13;;;9.10;99.90;;;;;;5103246;28;20040;-64
2022/03/17 05:23:22;;;;;;;31.05;20.05;;;9.10;99.90;;;;;;5107100;28;20052;-63
2022/03/17 05:25:49;;;;;;;25.67;15.85;;;8.90;99.90;;;;;;5107750;28;20574;-64
2022/03/17 05:28:15;;;;;;;9.77;8.80;;;8.70;99.90;;;;;;5108022;28;20372;-64
2022/03/17 05:30:44;;;;;;;9.65;8.52;;;8.40;99.90;;;;;;5107031;28;20044;-64
2022/03/17 05:33:11;;;;;;;19.17;10.77;;;8.20;99.90;;;;;;5106928;28;20040;-63
2022/03/17 05:35:41;;;;;;;15.93;10.73;;;8.10;99.90;;;;;;5107417;28;20446;-64
2022/03/17 05:38:07;;;;;;;15.52;11.00;;;8.00;99.90;;;;;;5106909;28;20038;-64
2022/03/17 05:40:33;;;;;;;12.52;9.25;;;8.00;99.90;;;;;;5107777;28;20044;-64
2022/03/17 05:43:01;;;;;;;16.05;8.98;;;7.90;99.90;;;;;;5107396;28;20067;-64
2022/03/17 05:45:28;;;;;;;13.38;10.18;;;7.90;99.90;;;;;;5107201;28;20062;-64
2022/03/17 05:47:59;;;;;;;13.90;8.43;;;7.90;99.90;;;;;;5107235;28;20044;-64
2022/03/17 05:50:27;;;;;;;18.83;11.10;;;7.80;99.90;;;;;;5107384;28;20087;-64
2022/03/17 05:52:52;;;;;;;;;;;7.80;99.90;;;;;;5107429;28;20059;-64
2022/03/17 05:55:21;;;;;;;16.83;11.30;;;7.80;99.90;;;;;;5105807;28;19920;-63
2022/03/17 05:57:50;;;;;;;21.58;12.77;;;7.80;99.90;;;;;;5107284;28;20149;-63
2022/03/17 06:00:18;;;;;;;20.92;11.43;;;7.70;99.90;;;;;;5106971;28;20027;-64
2022/03/17 06:02:45;;;;;;;22.35;12.32;;;7.80;99.90;;;;;;5105562;28;20047;-64
2022/03/17 06:05:12;;;;;;;23.95;11.93;;;7.70;99.90;;;;;;5106931;28;20052;-64
2022/03/17 06:07:48;;;;;;;27.20;15.18;;;7.70;99.90;;;;;;5106724;28;20044;-64
2022/03/17 06:10:23;;;;;;;29.25;14.38;;;7.60;99.90;;;;;;5105549;28;20048;-63
2022/03/17 06:12:51;;;;;;;29.38;12.07;;;7.60;99.90;;;;;;5106715;28;20121;-63
2022/03/17 06:15:19;;;;;;;17.13;10.35;;;7.50;99.90;;;;;;5106351;28;20036;-64
2022/03/17 06:17:50;;;;;;;32.65;12.50;;;7.50;99.90;;;;;;5106688;28;20052;-63
2022/03/17 06:20:18;;;;;;;22.17;10.60;;;7.40;99.90;;;;;;5106832;28;20052;-63
2022/03/17 06:22:46;;;;;;;24.88;10.38;;;7.40;99.90;;;;;;5106267;28;20079;-63
2022/03/17 06:25:15;;;;;;;25.98;9.02;;;7.40;99.90;;;;;;5106720;28;20055;-63
2022/03/17 06:27:44;;;;;;;24.92;9.25;;;7.40;99.90;;;;;;5106210;28;20091;-63
2022/03/17 06:30:16;;;;;;;19.05;8.23;;;7.40;99.90;;;;;;5106398;28;20070;-64
2022/03/17 06:32:42;;;;;;;20.95;6.47;;;7.30;99.90;;;;;;5106099;28;20044;-63
2022/03/17 06:35:15;;;;;;;20.50;6.90;;;7.30;99.90;;;;;;5106820;28;20104;-62
2022/03/17 06:37:42;;;;;;;14.07;5.43;;;7.30;99.90;;;;;;5106061;28;20047;-62
2022/03/17 06:40:08;;;;;;;25.42;6.60;;;7.30;99.90;;;;;;5106227;28;20103;-62
2022/03/17 06:42:34;;;;;;;22.02;6.13;;;7.30;99.90;;;;;;5106175;28;20055;-62
2022/03/17 06:45:00;;;;;;;20.58;5.60;;;7.30;99.90;;;;;;5106156;28;20184;-63
2022/03/17 06:47:25;;;;;;;16.70;5.22;;;7.30;99.90;;;;;;5100596;28;20061;-63
2022/03/17 06:49:51;;;;;;;16.75;4.45;;;7.20;99.90;;;;;;5106273;28;20036;-63
2022/03/17 06:52:17;;;;;;;14.63;6.25;;;7.30;99.90;;;;;;5096119;28;20052;-63
2022/03/17 06:54:43;;;;;;;15.35;5.45;;;7.30;99.90;;;;;;5105329;28;20040;-63
2022/03/17 06:57:09;;;;;;;9.18;3.25;;;7.30;99.90;;;;;;5099200;28;20042;-63
2022/03/17 06:59:34;;;;;;;14.68;3.75;;;7.30;99.90;;;;;;5096312;28;20040;-63
2022/03/17 07:02:00;;;;;;;17.70;3.60;;;7.30;99.90;;;;;;5098054;28;20084;-63
2022/03/17 07:04:26;;;;;;;17.05;3.47;;;7.30;99.90;;;;;;5111411;28;20088;-63
2022/03/17 07:06:52;;;;;;;6.07;2.50;;;7.20;99.90;;;;;;5108942;28;20048;-62
2022/03/17 07:09:17;;;;;;;17.10;3.53;;;7.20;99.90;;;;;;5106695;28;20047;-63
2022/03/17 07:11:44;;;;;;;9.80;2.50;;;7.20;99.90;;;;;;5104530;28;20055;-63
2022/03/17 07:14:10;;;;;;;8.25;2.50;;;7.20;99.90;;;;;;5126202;28;20044;-62
2022/03/17 07:16:36;;;;;;;10.32;3.15;;;7.10;99.90;;;;;;5123950;28;20336;-63
2022/03/17 07:19:02;;;;;;;11.73;2.60;;;7.10;99.90;;;;;;5086800;28;20040;-63
2022/03/17 07:21:28;;;;;;;12.18;2.55;;;7.20;99.90;;;;;;5123001;28;20046;-63
2022/03/17 07:23:54;;;;;;;10.20;2.70;;;7.20;99.90;;;;;;5125119;28;20047;-63
2022/03/17 07:26:20;;;;;;;13.25;1.90;;;7.20;99.90;;;;;;5111061;28;20040;-63
2022/03/17 07:28:46;;;;;;;11.48;2.78;;;7.20;99.90;;;;;;5106895;28;20503;-63
2022/03/17 07:31:12;;;;;;;10.98;2.80;;;7.20;99.90;;;;;;5104965;28;20101;-63
2022/03/17 07:33:38;;;;;;;10.23;1.75;;;7.20;99.90;;;;;;5105409;28;20503;-62
2022/03/17 07:36:04;;;;;;;23.25;3.63;;;7.20;99.90;;;;;;5104570;28;20048;-63
2022/03/17 07:38:30;;;;;;;11.70;3.08;;;7.20;99.90;;;;;;5105027;28;20074;-63
2022/03/17 07:40:56;;;;;;;12.95;2.33;;;7.20;99.90;;;;;;5104988;28;20052;-62
2022/03/17 07:43:23;;;;;;;14.23;2.78;;;7.20;99.90;;;;;;5105127;28;20048;-62
2022/03/17 07:45:49;;;;;;;15.52;3.25;;;7.10;99.90;;;;;;5103809;28;20108;-62
2022/03/17 07:48:15;;;;;;;12.35;1.83;;;7.20;99.90;;;;;;5104920;28;20048;-62
2022/03/17 07:50:40;;;;;;;12.10;2.28;;;7.20;99.90;;;;;;5104809;28;20107;-62
2022/03/17 07:53:06;;;;;;;14.35;1.80;;;7.20;99.90;;;;;;5103715;28;20124;-62
2022/03/17 07:55:33;;;;;;;14.20;2.60;;;7.20;99.90;;;;;;5104663;28;20046;-62
2022/03/17 07:58:00;;;;;;;15.83;2.07;;;7.20;99.90;;;;;;5104815;28;20044;-62
2022/03/17 08:00:26;;;;;;;5.80;1.95;;;7.20;99.90;;;;;;5104451;28;20797;-62
2022/03/17 08:02:51;;;;;;;15.20;2.70;;;7.20;99.90;;;;;;5104676;28;20039;-62
2022/03/17 08:05:17;;;;;;;20.42;2.92;;;7.20;99.90;;;;;;5104580;28;20060;-62
2022/03/17 08:07:43;;;;;;;16.08;2.17;;;7.30;99.90;;;;;;5104249;28;20051;-62
2022/03/17 08:10:10;;;;;;;11.02;1.88;;;7.30;99.90;;;;;;5104230;28;20048;-63
2022/03/17 08:12:35;;;;;;;27.15;2.55;;;7.30;99.90;;;;;;5104505;28;20036;-62
2022/03/17 08:15:05;;;;;;;11.85;2.20;;;7.30;99.90;;;;;;5104481;28;20050;-62
2022/03/17 08:17:31;;;;;;;15.35;2.33;;;7.30;99.90;;;;;;5111665;28;20032;-62
2022/03/17 08:19:57;;;;;;;20.13;3.42;;;7.20;99.90;;;;;;5124924;28;20091;-62
2022/03/17 08:22:25;;;;;;;12.95;2.55;;;7.20;99.90;;;;;;5124514;28;20059;-62
2022/03/17 08:24:53;;;;;;;13.75;2.42;;;7.20;99.90;;;;;;5110066;28;20194;-64
2022/03/17 08:27:19;;;;;;;16.85;3.17;;;7.20;99.90;;;;;;5104333;28;20082;-62
2022/03/17 08:29:44;;;;;;;20.13;3.72;;;7.20;99.90;;;;;;5104410;28;20124;-63
2022/03/17 08:32:10;;;;;;;25.65;3.75;;;7.20;99.90;;;;;;5102765;28;20048;-63
2022/03/17 08:34:36;;;;;;;28.33;4.80;;;7.30;99.90;;;;;;5104661;28;20100;-62
2022/03/17 08:37:02;;;;;;;20.98;4.32;;;7.20;99.90;;;;;;5105052;28;20035;-62
2022/03/17 08:39:28;;;;;;;20.52;3.22;;;7.40;99.90;;;;;;5104101;28;20039;-63
2022/03/17 08:41:56;;;;;;;15.82;2.75;;;7.40;99.90;;;;;;5104261;28;20441;-63
2022/03/17 08:44:22;;;;;;;32.88;3.97;;;7.50;99.90;;;;;;5104260;28;20044;-63
2022/03/17 08:49:32;;;;;;;18.98;3.47;;;7.60;99.90;;;;;;5104237;28;20081;-63
2022/03/17 08:51:59;;;;;;;16.05;2.60;;;7.60;99.90;;;;;;5104870;28;20064;-62
2022/03/17 08:54:27;;;;;;;13.52;2.22;;;7.60;99.90;;;;;;5103980;28;20040;-63
2022/03/17 08:56:59;;;;;;;7.63;2.42;;;7.50;99.90;;;;;;5106546;28;20051;-61
2022/03/17 08:59:34;;;;;;;22.40;3.38;;;7.50;99.90;;;;;;5100728;28;20059;-63
2022/03/17 09:02:02;;;;;;;14.50;2.25;;;7.50;99.90;;;;;;5107875;28;20107;-62
2022/03/17 09:04:28;;;;;;;17.63;2.47;;;7.40;99.90;;;;;;5107374;28;20096;-64
2022/03/17 09:06:59;;;;;;;17.27;2.35;;;7.50;99.90;;;;;;5107426;28;20156;-62
2022/03/17 09:09:28;;;;;;;13.82;2.33;;;7.60;99.90;;;;;;5108041;28;20040;-63
2022/03/17 09:11:54;;;;;;;13.95;1.88;;;7.60;99.90;;;;;;5106361;28;20040;-63
2022/03/17 09:14:21;;;;;;;11.25;2.17;;;7.70;99.90;;;;;;5110570;28;20043;-63
2022/03/17 09:16:47;;;;;;;9.00;1.75;;;7.90;99.90;;;;;;5111335;28;20044;-63
2022/03/17 09:19:13;;;;;;;11.90;1.65;;;7.90;99.90;;;;;;5107982;28;20523;-62
2022/03/17 09:21:38;;;;;;;17.10;2.20;;;7.90;99.90;;;;;;5117627;28;20040;-63
2022/03/17 09:24:05;;;;;;;14.15;3.03;;;7.80;99.90;;;;;;5128407;28;20075;-63
2022/03/17 09:26:31;;;;;;;22.27;3.20;;;7.70;99.90;;;;;;5125958;28;20039;-64
2022/03/17 09:28:58;;;;;;;12.70;2.60;;;7.70;99.90;;;;;;5107812;28;20040;-64
2022/03/17 09:31:24;;;;;;;13.57;2.33;;;7.70;99.90;;;;;;5140297;27;20048;-65
2022/03/17 09:33:50;;;;;;;16.13;2.33;;;7.70;99.90;;;;;;5128514;28;20042;-64
2022/03/17 09:36:16;;;;;;;16.27;2.97;;;7.80;99.90;;;;;;5121282;28;20032;-63
2022/03/17 09:38:42;;;;;;;16.48;2.33;;;8.00;99.90;;;;;;5107604;28;20051;-66
2022/03/17 09:41:24;;;;;;;12.27;2.47;;;8.10;99.90;;;;;;5107405;28;20040;-62
2022/03/17 09:43:53;;;;;;;10.30;2.22;;;8.20;99.90;;;;;;5107400;28;20118;-62
2022/03/17 09:46:21;;;;;;;8.82;2.35;;;8.20;99.90;;;;;;5106819;28;20071;-63
2022/03/17 09:48:52;;;;;;;13.30;1.98;;;8.40;99.90;;;;;;5107850;28;20047;-62
2022/03/17 09:51:21;;;;;;;8.90;2.42;;;8.30;99.90;;;;;;5102153;28;20123;-63
2022/03/17 09:53:47;;;;;;;10.43;2.40;;;8.30;99.90;;;;;;5108882;28;20101;-63
2022/03/17 09:56:13;;;;;;;16.13;3.00;;;8.20;99.90;;;;;;5107036;28;20098;-62
2022/03/17 09:58:39;;;;;;;16.38;2.22;;;8.30;99.90;;;;;;5091980;28;20106;-63
2022/03/17 10:01:07;;;;;;;18.17;2.78;;;8.40;99.90;;;;;;5086519;28;20046;-63
2022/03/17 10:03:34;;;;;;;;;;;8.40;99.90;;;;;;5113846;28;20051;-63
2022/03/17 10:06:05;;;;;;;15.05;2.50;;;8.40;99.90;;;;;;5126516;28;20322;-62
2022/03/17 10:08:33;;;;;;;17.95;2.72;;;8.60;99.90;;;;;;5126739;27;20048;-62
2022/03/17 10:10:59;;;;;;;20.48;2.25;;;8.80;99.90;;;;;;5120607;28;20048;-63
2022/03/17 10:13:26;;;;;;;16.13;3.22;;;8.90;99.90;;;;;;5106518;28;20072;-63
2022/03/17 10:16:20;;;;;;;10.05;2.20;;;8.90;99.90;;;;;;5106682;28;20048;-63
2022/03/17 10:18:54;;;;;;;18.75;2.97;;;8.90;99.90;;;;;;5100057;28;20449;-63
2022/03/17 10:21:24;;;;;;;15.05;3.00;;;9.00;99.90;;;;;;5086207;28;20051;-63
2022/03/17 10:23:50;;;;;;;9.52;2.20;;;8.90;99.90;;;;;;5095623;28;20055;-62
2022/03/17 10:26:49;;;;;;;10.38;2.08;;;8.90;99.90;;;;;;5098124;28;20048;-63
2022/03/17 10:29:20;;;;;;;15.18;2.45;;;8.90;99.90;;;;;;5096749;28;20048;-62
2022/03/17 10:32:06;;;;;;;15.43;2.45;;;9.00;99.90;;;;;;5106202;28;20044;-63
2022/03/17 10:34:35;;;;;;;11.43;2.78;;;9.10;99.90;;;;;;5106552;28;20048;-62
2022/03/17 10:37:15;;;;;;;12.07;2.15;;;9.30;99.90;;;;;;5107637;28;20074;-63
2022/03/17 10:39:51;;;;;;;12.48;2.17;;;9.50;99.90;;;;;;5119287;28;20066;-63
2022/03/17 10:42:18;;;;;;;18.63;2.97;;;9.70;99.90;;;;;;5106590;28;20484;-63
2022/03/17 10:44:50;;;;;;;10.82;2.05;;;9.80;99.90;;;;;;5106445;28;20048;-63
2022/03/17 10:47:33;;;;;;;28.10;3.05;;;9.90;99.90;;;;;;5106012;28;20045;-63
2022/03/17 10:50:20;;;;;;;16.85;3.40;;;9.80;99.90;;;;;;5103976;28;20127;-63
2022/03/17 10:52:57;;;;;;;13.05;2.78;;;9.60;99.90;;;;;;5096195;28;20045;-63
2022/03/17 10:55:27;;;;;;;10.88;2.53;;;9.50;99.90;;;;;;5084347;28;20037;-63
2022/03/17 10:57:56;;;;;;;8.20;2.20;;;9.60;99.90;;;;;;5089603;28;20044;-63
2022/03/17 11:00:27;;;;;;;11.35;2.42;;;9.50;99.90;;;;;;5085722;28;20579;-63
2022/03/17 11:02:58;;;;;;;10.88;2.15;;;9.70;99.90;;;;;;5085911;28;20044;-63
2022/03/17 11:05:28;;;;;;;10.77;2.38;;;9.80;99.90;;;;;;5085638;28;20045;-64
2022/03/17 11:07:55;;;;;;;15.82;1.77;;;9.90;99.90;;;;;;5105493;28;20086;-62
2022/03/17 11:10:22;;;;;;;18.95;2.78;;;9.90;99.90;;;;;;5086123;28;20450;-62
2022/03/17 11:12:50;;;;;;;17.10;3.10;;;9.90;99.90;;;;;;5086792;28;20855;-63
2022/03/17 11:15:24;;;;;;;;;;;10.30;99.90;;;;;;5106404;28;20094;-63
2022/03/17 11:17:51;;;;;;;9.07;2.10;;;10.30;99.90;;;;;;5105828;28;19962;-65
2022/03/17 11:20:20;;;;;;;12.43;2.42;;;10.50;99.90;;;;;;5115740;28;20074;-66
2022/03/17 11:23:11;;;;;;;13.30;2.17;;;10.50;99.90;;;;;;5125349;28;20070;-64
2022/03/17 11:25:37;;;;;;;18.15;2.78;;;10.70;99.90;;;;;;5124175;28;20044;-64
2022/03/17 11:28:05;;;;;;;18.05;3.67;;;10.70;99.90;;;;;;5125142;28;20048;-67
2022/03/17 11:30:45;;;;;;;12.75;3.33;;;10.50;99.90;;;;;;5125699;28;20040;-64
2022/03/17 11:33:39;;;;;;;13.45;2.60;;;10.50;99.90;;;;;;5124901;28;20276;-63
2022/03/17 11:36:07;;;;;;;15.65;2.40;;;10.60;99.90;;;;;;5125545;28;20048;-63
2022/03/17 11:38:37;;;;;;;16.77;3.00;;;10.80;99.90;;;;;;5125714;28;20052;-64
2022/03/17 11:41:12;;;;;;;11.10;1.80;;;10.90;99.90;;;;;;5125711;28;20047;-62
2022/03/17 11:43:41;;;;;;;13.50;2.55;;;10.90;99.90;;;;;;5125760;28;20083;-63
2022/03/17 11:46:36;;;;;;;13.95;2.55;;;10.90;99.90;;;;;;5107905;28;20082;-63
2022/03/17 11:49:21;;;;;;;14.68;2.90;;;10.50;99.90;;;;;;5105060;28;20487;-64
2022/03/17 11:52:03;;;;;;;11.85;2.65;;;10.30;99.90;;;;;;5103748;28;20052;-64
2022/03/17 11:54:30;;;;;;;8.60;2.45;;;10.20;99.90;;;;;;5105139;28;21438;-63
2022/03/17 11:57:04;;;;;;;16.42;2.97;;;9.90;99.90;;;;;;5104788;28;20446;-63
2022/03/17 11:59:51;;;;;;;11.18;2.78;;;10.30;99.90;;;;;;5104440;28;20051;-63
2022/03/17 12:02:18;;;;;;;12.05;2.58;;;10.70;99.90;;;;;;5104017;28;20036;-63
2022/03/17 12:04:48;;;;;;;11.73;2.63;;;10.60;99.10;;;;;;5104489;28;20040;-63
2022/03/17 12:07:18;;;;;;;19.08;3.05;;;10.60;99.00;;;;;;5104211;28;20040;-65
2022/03/17 12:09:44;;;;;;;9.02;1.95;;;10.80;99.90;;;;;;5104801;28;20070;-65
2022/03/17 12:12:27;;;;;;;11.25;2.53;;;11.40;99.90;;;;;;5105530;28;20512;-64
2022/03/17 12:15:00;;;;;;;9.02;2.05;;;12.00;96.00;;;;;;5105189;28;20047;-64
2022/03/17 12:17:27;;;;;;;12.45;2.90;;;12.00;91.50;;;;;;5104374;28;20048;-65
2022/03/17 12:20:07;;;;;;;14.10;1.88;;;12.00;90.50;;;;;;5103877;28;20101;-64
2022/03/17 12:22:33;;;;;;;13.82;2.20;;;12.20;91.70;;;;;;5107830;28;20051;-63
2022/03/17 12:25:16;;;;;;;12.40;2.10;;;12.10;86.30;;;;;;5104370;28;20050;-64
2022/03/17 12:27:43;;;;;;;8.27;1.70;;;12.20;90.30;;;;;;5115118;28;20089;-64
2022/03/17 12:30:15;;;;;;;11.50;2.08;;;12.30;90.10;;;;;;5104924;28;20040;-64
2022/03/17 12:32:48;;;;;;;9.00;1.80;;;12.30;90.20;;;;;;5105113;28;20074;-63
2022/03/17 12:35:14;;;;;;;11.80;2.25;;;12.30;91.00;;;;;;5106253;28;20093;-64
2022/03/17 12:37:42;;;;;;;14.25;2.58;;;12.60;87.90;;;;;;5108781;28;20059;-64
2022/03/17 12:40:17;;;;;;;9.68;1.42;;;12.80;91.30;;;;;;5109290;28;20099;-64
2022/03/17 12:42:45;;;;;;;10.25;1.48;;;12.90;84.20;;;;;;5110625;28;20046;-64
2022/03/17 12:45:14;;;;;;;10.55;2.00;;;12.50;77.10;;;;;;5103757;28;20496;-64
2022/03/17 12:47:42;;;;;;;10.05;2.08;;;12.60;80.10;;;;;;5104061;28;20047;-64
2022/03/17 12:50:14;;;;;;;12.55;2.55;;;12.70;81.40;;;;;;5114327;28;20055;-63
2022/03/17 12:52:41;;;;;;;13.68;2.22;;;12.50;82.60;;;;;;5107479;28;20040;-63
2022/03/17 12:55:09;;;;;;;7.80;2.15;;;12.30;84.50;;;;;;5113988;28;20050;-64
2022/03/17 12:57:37;;;;;;;10.38;2.33;;;12.40;83.80;;;;;;5104928;28;20054;-64
2022/03/17 13:00:04;;;;;;;9.95;2.30;;;12.80;79.10;;;;;;5103795;28;20056;-64